sensor_id;sensor_type;location;lat;lon;timestamp;P1;durP1;ratioP1;P2;durP2;ratioP2
69203;SDS011;56317;27.658;85.326;2023-07-02T00:00:11;31.00;;;14.80;;
69203;SDS011;56317;27.658;85.326;2023-07-02T00:02:38;27.15;;;14.40;;
69203;SDS011;56317;27.658;85.326;2023-07-02T00:05:05;28.20;;;14.70;;
69203;SDS011;56317;27.658;85.326;2023-07-02T00:07:33;22.52;;;13.15;;
69203;SDS011;56317;27.658;85.326;2023-07-02T00:10:01;21.80;;;12.88;;
69203;SDS011;56317;27.658;85.326;2023-07-02T00:12:29;22.45;;;12.77;;
69203;SDS011;56317;27.658;85.326;2023-07-02T00:14:56;22.27;;;11.68;;
69203;SDS011;56317;27.658;85.326;2023-07-02T00:17:23;25.55;;;13.02;;
69203;SDS011;56317;27.658;85.326;2023-07-02T00:19:50;24.52;;;13.38;;
69203;SDS011;56317;27.658;85.326;2023-07-02T00:22:18;19.85;;;11.70;;
69203;SDS011;56317;27.658;85.326;2023-07-02T00:24:45;21.50;;;12.18;;
69203;SDS011;56317;27.658;85.326;2023-07-02T00:27:12;19.58;;;11.68;;
69203;SDS011;56317;27.658;85.326;2023-07-02T00:29:39;24.75;;;11.70;;
69203;SDS011;56317;27.658;85.326;2023-07-02T00:32:06;20.00;;;11.40;;
69203;SDS011;56317;27.658;85.326;2023-07-02T00:34:33;20.02;;;11.52;;
69203;SDS011;56317;27.658;85.326;2023-07-02T00:37:00;21.40;;;13.50;;
69203;SDS011;56317;27.658;85.326;2023-07-02T00:39:28;18.23;;;11.65;;
69203;SDS011;56317;27.658;85.326;2023-07-02T00:41:59;19.75;;;12.30;;
69203;SDS011;56317;27.658;85.326;2023-07-02T00:44:28;21.20;;;11.63;;
69203;SDS011;56317;27.658;85.326;2023-07-02T00:46:55;27.50;;;13.43;;
69203;SDS011;56317;27.658;85.326;2023-07-02T00:49:23;22.67;;;12.02;;
69203;SDS011;56317;27.658;85.326;2023-07-02T00:51:50;20.25;;;12.15;;
69203;SDS011;56317;27.658;85.326;2023-07-02T00:54:18;19.85;;;11.48;;
69203;SDS011;56317;27.658;85.326;2023-07-02T00:56:45;23.20;;;12.02;;
69203;SDS011;56317;27.658;85.326;2023-07-02T00:59:12;23.42;;;11.85;;
69203;SDS011;56317;27.658;85.326;2023-07-02T01:01:40;20.35;;;12.55;;
69203;SDS011;56317;27.658;85.326;2023-07-02T01:04:07;21.27;;;12.35;;
69203;SDS011;56317;27.658;85.326;2023-07-02T01:06:38;19.05;;;11.07;;
69203;SDS011;56317;27.658;85.326;2023-07-02T01:09:08;22.10;;;11.98;;
69203;SDS011;56317;27.658;85.326;2023-07-02T01:11:43;23.02;;;13.10;;
69203;SDS011;56317;27.658;85.326;2023-07-02T01:17:02;25.77;;;13.15;;
69203;SDS011;56317;27.658;85.326;2023-07-02T01:19:38;22.90;;;12.10;;
69203;SDS011;56317;27.658;85.326;2023-07-02T01:22:17;25.52;;;12.35;;
69203;SDS011;56317;27.658;85.326;2023-07-02T01:24:55;27.05;;;11.57;;
69203;SDS011;56317;27.658;85.326;2023-07-02T01:27:22;23.83;;;12.45;;
69203;SDS011;56317;27.658;85.326;2023-07-02T01:29:52;18.58;;;11.70;;
69203;SDS011;56317;27.658;85.326;2023-07-02T01:32:20;22.42;;;12.38;;
69203;SDS011;56317;27.658;85.326;2023-07-02T01:34:48;17.63;;;10.45;;
69203;SDS011;56317;27.658;85.326;2023-07-02T01:37:18;20.00;;;12.77;;
69203;SDS011;56317;27.658;85.326;2023-07-02T01:39:46;19.65;;;11.85;;
69203;SDS011;56317;27.658;85.326;2023-07-02T01:42:17;20.52;;;11.77;;
69203;SDS011;56317;27.658;85.326;2023-07-02T01:44:45;19.63;;;10.77;;
69203;SDS011;56317;27.658;85.326;2023-07-02T01:47:14;19.48;;;10.45;;
69203;SDS011;56317;27.658;85.326;2023-07-02T01:49:41;17.33;;;10.57;;
69203;SDS011;56317;27.658;85.326;2023-07-02T01:52:08;20.63;;;11.13;;
69203;SDS011;56317;27.658;85.326;2023-07-02T01:54:35;20.67;;;10.50;;
69203;SDS011;56317;27.658;85.326;2023-07-02T01:57:03;20.73;;;10.40;;
69203;SDS011;56317;27.658;85.326;2023-07-02T01:59:30;17.35;;;9.95;;
69203;SDS011;56317;27.658;85.326;2023-07-02T02:01:57;18.42;;;10.07;;
69203;SDS011;56317;27.658;85.326;2023-07-02T02:04:24;16.38;;;8.95;;
69203;SDS011;56317;27.658;85.326;2023-07-02T02:06:52;14.75;;;9.07;;
69203;SDS011;56317;27.658;85.326;2023-07-02T02:09:19;25.00;;;10.45;;
69203;SDS011;56317;27.658;85.326;2023-07-02T02:11:48;15.88;;;8.50;;
69203;SDS011;56317;27.658;85.326;2023-07-02T02:14:16;17.13;;;9.13;;
69203;SDS011;56317;27.658;85.326;2023-07-02T02:16:44;14.02;;;8.55;;
69203;SDS011;56317;27.658;85.326;2023-07-02T02:19:11;16.88;;;9.27;;
69203;SDS011;56317;27.658;85.326;2023-07-02T02:21:40;20.77;;;9.85;;
69203;SDS011;56317;27.658;85.326;2023-07-02T02:24:07;15.98;;;9.52;;
69203;SDS011;56317;27.658;85.326;2023-07-02T02:26:35;21.60;;;10.93;;
69203;SDS011;56317;27.658;85.326;2023-07-02T02:29:02;19.85;;;10.00;;
69203;SDS011;56317;27.658;85.326;2023-07-02T02:31:31;21.98;;;10.77;;
69203;SDS011;56317;27.658;85.326;2023-07-02T02:33:58;15.93;;;8.50;;
69203;SDS011;56317;27.658;85.326;2023-07-02T02:36:25;13.40;;;8.98;;
69203;SDS011;56317;27.658;85.326;2023-07-02T02:38:52;16.92;;;8.80;;
69203;SDS011;56317;27.658;85.326;2023-07-02T02:41:19;17.15;;;8.90;;
69203;SDS011;56317;27.658;85.326;2023-07-02T02:43:46;17.10;;;9.98;;
69203;SDS011;56317;27.658;85.326;2023-07-02T02:46:18;17.83;;;11.23;;
69203;SDS011;56317;27.658;85.326;2023-07-02T02:48:50;18.73;;;10.82;;
69203;SDS011;56317;27.658;85.326;2023-07-02T02:51:17;20.05;;;11.45;;
69203;SDS011;56317;27.658;85.326;2023-07-02T02:53:44;20.80;;;11.20;;
69203;SDS011;56317;27.658;85.326;2023-07-02T02:56:11;17.20;;;11.57;;
69203;SDS011;56317;27.658;85.326;2023-07-02T02:58:39;22.45;;;11.55;;
69203;SDS011;56317;27.658;85.326;2023-07-02T03:01:06;25.48;;;12.70;;
69203;SDS011;56317;27.658;85.326;2023-07-02T03:03:39;20.75;;;11.60;;
69203;SDS011;56317;27.658;85.326;2023-07-02T03:06:11;20.92;;;11.63;;
69203;SDS011;56317;27.658;85.326;2023-07-02T03:11:08;19.02;;;11.70;;
69203;SDS011;56317;27.658;85.326;2023-07-02T03:13:35;20.73;;;12.65;;
69203;SDS011;56317;27.658;85.326;2023-07-02T03:16:02;26.17;;;13.63;;
69203;SDS011;56317;27.658;85.326;2023-07-02T03:18:30;25.08;;;14.05;;
69203;SDS011;56317;27.658;85.326;2023-07-02T03:20:57;23.60;;;13.90;;
69203;SDS011;56317;27.658;85.326;2023-07-02T03:23:25;20.90;;;13.90;;
69203;SDS011;56317;27.658;85.326;2023-07-02T03:25:52;25.20;;;14.13;;
69203;SDS011;56317;27.658;85.326;2023-07-02T03:28:19;24.75;;;14.73;;
69203;SDS011;56317;27.658;85.326;2023-07-02T03:30:46;29.40;;;15.75;;
69203;SDS011;56317;27.658;85.326;2023-07-02T03:33:13;25.55;;;16.38;;
69203;SDS011;56317;27.658;85.326;2023-07-02T03:35:40;24.85;;;15.65;;
69203;SDS011;56317;27.658;85.326;2023-07-02T03:38:07;26.13;;;15.55;;
69203;SDS011;56317;27.658;85.326;2023-07-02T03:40:35;34.10;;;16.63;;
69203;SDS011;56317;27.658;85.326;2023-07-02T03:43:02;27.85;;;16.60;;
69203;SDS011;56317;27.658;85.326;2023-07-02T03:45:29;28.35;;;15.93;;
69203;SDS011;56317;27.658;85.326;2023-07-02T03:47:56;28.70;;;15.93;;
69203;SDS011;56317;27.658;85.326;2023-07-02T03:50:23;25.63;;;13.73;;
69203;SDS011;56317;27.658;85.326;2023-07-02T03:52:50;23.95;;;11.90;;
69203;SDS011;56317;27.658;85.326;2023-07-02T03:55:18;23.13;;;12.32;;
69203;SDS011;56317;27.658;85.326;2023-07-02T03:57:46;28.08;;;14.40;;
69203;SDS011;56317;27.658;85.326;2023-07-02T04:00:13;25.67;;;14.30;;
69203;SDS011;56317;27.658;85.326;2023-07-02T04:02:40;22.98;;;11.27;;
69203;SDS011;56317;27.658;85.326;2023-07-02T04:05:07;22.20;;;10.95;;
69203;SDS011;56317;27.658;85.326;2023-07-02T04:07:35;18.42;;;10.32;;
69203;SDS011;56317;27.658;85.326;2023-07-02T04:10:02;24.42;;;12.23;;
69203;SDS011;56317;27.658;85.326;2023-07-02T04:12:31;25.08;;;11.63;;
69203;SDS011;56317;27.658;85.326;2023-07-02T04:14:58;21.67;;;11.85;;
69203;SDS011;56317;27.658;85.326;2023-07-02T04:17:25;21.98;;;12.35;;
69203;SDS011;56317;27.658;85.326;2023-07-02T04:19:53;20.70;;;10.88;;
69203;SDS011;56317;27.658;85.326;2023-07-02T04:22:21;30.95;;;13.02;;
69203;SDS011;56317;27.658;85.326;2023-07-02T04:24:48;21.25;;;12.00;;
69203;SDS011;56317;27.658;85.326;2023-07-02T04:27:15;23.30;;;13.13;;
69203;SDS011;56317;27.658;85.326;2023-07-02T04:29:46;18.48;;;10.57;;
69203;SDS011;56317;27.658;85.326;2023-07-02T04:32:14;19.27;;;10.30;;
69203;SDS011;56317;27.658;85.326;2023-07-02T04:34:41;22.35;;;10.45;;
69203;SDS011;56317;27.658;85.326;2023-07-02T04:37:08;18.00;;;10.82;;
69203;SDS011;56317;27.658;85.326;2023-07-02T04:39:36;14.35;;;9.98;;
69203;SDS011;56317;27.658;85.326;2023-07-02T04:42:03;19.05;;;10.57;;
69203;SDS011;56317;27.658;85.326;2023-07-02T04:44:31;20.75;;;11.52;;
69203;SDS011;56317;27.658;85.326;2023-07-02T04:46:59;27.88;;;11.90;;
69203;SDS011;56317;27.658;85.326;2023-07-02T04:49:27;29.50;;;12.10;;
69203;SDS011;56317;27.658;85.326;2023-07-02T04:51:54;22.58;;;11.80;;
69203;SDS011;56317;27.658;85.326;2023-07-02T04:54:21;21.40;;;11.88;;
69203;SDS011;56317;27.658;85.326;2023-07-02T04:56:48;26.88;;;13.18;;
69203;SDS011;56317;27.658;85.326;2023-07-02T04:59:16;18.38;;;11.10;;
69203;SDS011;56317;27.658;85.326;2023-07-02T05:01:43;22.25;;;14.00;;
69203;SDS011;56317;27.658;85.326;2023-07-02T05:04:10;23.27;;;13.48;;
69203;SDS011;56317;27.658;85.326;2023-07-02T05:06:37;23.58;;;12.98;;
69203;SDS011;56317;27.658;85.326;2023-07-02T05:09:05;25.10;;;14.43;;
69203;SDS011;56317;27.658;85.326;2023-07-02T05:11:32;26.95;;;15.10;;
69203;SDS011;56317;27.658;85.326;2023-07-02T05:13:59;23.17;;;14.23;;
69203;SDS011;56317;27.658;85.326;2023-07-02T05:16:26;20.38;;;13.38;;
69203;SDS011;56317;27.658;85.326;2023-07-02T05:18:53;26.38;;;15.30;;
69203;SDS011;56317;27.658;85.326;2023-07-02T05:21:20;22.80;;;14.35;;
69203;SDS011;56317;27.658;85.326;2023-07-02T05:23:48;25.50;;;14.05;;
69203;SDS011;56317;27.658;85.326;2023-07-02T05:26:15;22.55;;;14.32;;
69203;SDS011;56317;27.658;85.326;2023-07-02T05:28:42;27.02;;;14.65;;
69203;SDS011;56317;27.658;85.326;2023-07-02T05:31:09;28.38;;;15.05;;
69203;SDS011;56317;27.658;85.326;2023-07-02T05:33:38;24.35;;;14.25;;
69203;SDS011;56317;27.658;85.326;2023-07-02T05:36:05;22.25;;;13.95;;
69203;SDS011;56317;27.658;85.326;2023-07-02T05:38:32;29.23;;;16.05;;
69203;SDS011;56317;27.658;85.326;2023-07-02T05:40:59;26.55;;;16.05;;
69203;SDS011;56317;27.658;85.326;2023-07-02T05:43:28;24.10;;;15.20;;
69203;SDS011;56317;27.658;85.326;2023-07-02T05:45:57;35.22;;;15.38;;
69203;SDS011;56317;27.658;85.326;2023-07-02T05:48:28;31.63;;;17.60;;
69203;SDS011;56317;27.658;85.326;2023-07-02T05:50:55;26.27;;;16.42;;
69203;SDS011;56317;27.658;85.326;2023-07-02T05:53:22;21.85;;;14.73;;
69203;SDS011;56317;27.658;85.326;2023-07-02T05:55:49;22.73;;;15.05;;
69203;SDS011;56317;27.658;85.326;2023-07-02T05:58:16;18.55;;;13.35;;
69203;SDS011;56317;27.658;85.326;2023-07-02T06:00:43;20.77;;;13.35;;
69203;SDS011;56317;27.658;85.326;2023-07-02T06:03:15;20.52;;;12.70;;
69203;SDS011;56317;27.658;85.326;2023-07-02T06:05:48;19.58;;;12.73;;
69203;SDS011;56317;27.658;85.326;2023-07-02T06:08:16;21.40;;;13.13;;
69203;SDS011;56317;27.658;85.326;2023-07-02T06:10:45;21.88;;;13.23;;
69203;SDS011;56317;27.658;85.326;2023-07-02T06:13:13;27.60;;;14.40;;
69203;SDS011;56317;27.658;85.326;2023-07-02T06:15:40;32.15;;;14.60;;
69203;SDS011;56317;27.658;85.326;2023-07-02T06:18:07;24.17;;;14.48;;
69203;SDS011;56317;27.658;85.326;2023-07-02T06:20:35;24.73;;;13.77;;
69203;SDS011;56317;27.658;85.326;2023-07-02T06:23:02;22.25;;;14.05;;
69203;SDS011;56317;27.658;85.326;2023-07-02T06:25:29;22.23;;;13.77;;
69203;SDS011;56317;27.658;85.326;2023-07-02T06:27:56;24.40;;;14.13;;
69203;SDS011;56317;27.658;85.326;2023-07-02T06:30:24;22.92;;;13.73;;
69203;SDS011;56317;27.658;85.326;2023-07-02T06:32:51;22.92;;;14.98;;
69203;SDS011;56317;27.658;85.326;2023-07-02T06:35:19;22.27;;;14.73;;
69203;SDS011;56317;27.658;85.326;2023-07-02T06:37:47;22.92;;;14.23;;
69203;SDS011;56317;27.658;85.326;2023-07-02T06:40:14;19.05;;;13.55;;
69203;SDS011;56317;27.658;85.326;2023-07-02T06:42:41;21.42;;;12.55;;
69203;SDS011;56317;27.658;85.326;2023-07-02T06:45:11;21.15;;;12.90;;
69203;SDS011;56317;27.658;85.326;2023-07-02T06:47:38;17.95;;;11.77;;
69203;SDS011;56317;27.658;85.326;2023-07-02T06:50:05;18.17;;;11.55;;
69203;SDS011;56317;27.658;85.326;2023-07-02T06:52:32;18.75;;;12.70;;
69203;SDS011;56317;27.658;85.326;2023-07-02T06:54:59;19.75;;;12.18;;
69203;SDS011;56317;27.658;85.326;2023-07-02T06:57:27;21.08;;;13.32;;
69203;SDS011;56317;27.658;85.326;2023-07-02T06:59:58;19.33;;;13.48;;
69203;SDS011;56317;27.658;85.326;2023-07-02T07:02:25;19.52;;;12.88;;
69203;SDS011;56317;27.658;85.326;2023-07-02T07:04:53;19.70;;;12.82;;
69203;SDS011;56317;27.658;85.326;2023-07-02T07:07:20;18.17;;;12.30;;
69203;SDS011;56317;27.658;85.326;2023-07-02T07:09:47;19.80;;;12.70;;
69203;SDS011;56317;27.658;85.326;2023-07-02T07:12:14;16.13;;;11.15;;
69203;SDS011;56317;27.658;85.326;2023-07-02T07:14:41;16.75;;;11.68;;
69203;SDS011;56317;27.658;85.326;2023-07-02T07:17:09;17.55;;;10.32;;
69203;SDS011;56317;27.658;85.326;2023-07-02T07:19:39;17.08;;;11.35;;
69203;SDS011;56317;27.658;85.326;2023-07-02T07:22:06;16.73;;;11.18;;
69203;SDS011;56317;27.658;85.326;2023-07-02T07:24:33;17.35;;;11.95;;
69203;SDS011;56317;27.658;85.326;2023-07-02T07:27:00;17.58;;;11.13;;
69203;SDS011;56317;27.658;85.326;2023-07-02T07:29:28;15.93;;;11.02;;
69203;SDS011;56317;27.658;85.326;2023-07-02T07:31:55;21.77;;;10.15;;
69203;SDS011;56317;27.658;85.326;2023-07-02T07:34:22;14.15;;;10.20;;
69203;SDS011;56317;27.658;85.326;2023-07-02T07:36:49;17.30;;;11.18;;
69203;SDS011;56317;27.658;85.326;2023-07-02T07:39:16;14.95;;;10.30;;
69203;SDS011;56317;27.658;85.326;2023-07-02T07:41:46;16.27;;;9.60;;
69203;SDS011;56317;27.658;85.326;2023-07-02T07:44:14;15.70;;;10.55;;
69203;SDS011;56317;27.658;85.326;2023-07-02T07:46:41;18.50;;;11.13;;
69203;SDS011;56317;27.658;85.326;2023-07-02T07:49:08;15.60;;;9.90;;
69203;SDS011;56317;27.658;85.326;2023-07-02T07:51:35;15.00;;;10.80;;
69203;SDS011;56317;27.658;85.326;2023-07-02T07:54:02;13.82;;;9.88;;
69203;SDS011;56317;27.658;85.326;2023-07-02T07:56:30;16.77;;;9.80;;
69203;SDS011;56317;27.658;85.326;2023-07-02T07:58:57;17.55;;;9.52;;
69203;SDS011;56317;27.658;85.326;2023-07-02T08:01:25;15.73;;;9.90;;
69203;SDS011;56317;27.658;85.326;2023-07-02T08:03:53;12.75;;;8.05;;
69203;SDS011;56317;27.658;85.326;2023-07-02T08:06:20;14.00;;;9.23;;
69203;SDS011;56317;27.658;85.326;2023-07-02T08:08:48;16.77;;;9.32;;
69203;SDS011;56317;27.658;85.326;2023-07-02T08:11:15;12.25;;;8.65;;
69203;SDS011;56317;27.658;85.326;2023-07-02T08:13:42;15.13;;;7.43;;
69203;SDS011;56317;27.658;85.326;2023-07-02T08:16:09;9.52;;;6.93;;
69203;SDS011;56317;27.658;85.326;2023-07-02T08:18:36;10.85;;;6.85;;
69203;SDS011;56317;27.658;85.326;2023-07-02T08:21:05;11.70;;;7.43;;
69203;SDS011;56317;27.658;85.326;2023-07-02T08:23:33;10.55;;;5.80;;
69203;SDS011;56317;27.658;85.326;2023-07-02T08:26:00;12.57;;;6.25;;
69203;SDS011;56317;27.658;85.326;2023-07-02T08:28:28;12.05;;;6.40;;
69203;SDS011;56317;27.658;85.326;2023-07-02T08:30:56;10.35;;;5.68;;
69203;SDS011;56317;27.658;85.326;2023-07-02T08:33:24;8.23;;;5.60;;
69203;SDS011;56317;27.658;85.326;2023-07-02T08:35:51;10.68;;;5.70;;
69203;SDS011;56317;27.658;85.326;2023-07-02T08:38:18;9.25;;;5.72;;
69203;SDS011;56317;27.658;85.326;2023-07-02T08:40:45;9.93;;;5.43;;
69203;SDS011;56317;27.658;85.326;2023-07-02T08:43:14;8.93;;;5.40;;
69203;SDS011;56317;27.658;85.326;2023-07-02T08:45:42;8.35;;;5.35;;
69203;SDS011;56317;27.658;85.326;2023-07-02T08:48:12;8.68;;;5.40;;
69203;SDS011;56317;27.658;85.326;2023-07-02T08:50:43;10.50;;;5.07;;
69203;SDS011;56317;27.658;85.326;2023-07-02T08:53:10;9.48;;;5.50;;
69203;SDS011;56317;27.658;85.326;2023-07-02T08:55:37;10.00;;;5.15;;
69203;SDS011;56317;27.658;85.326;2023-07-02T08:58:05;7.80;;;5.22;;
69203;SDS011;56317;27.658;85.326;2023-07-02T09:00:33;8.18;;;5.50;;
69203;SDS011;56317;27.658;85.326;2023-07-02T09:03:15;8.55;;;5.70;;
69203;SDS011;56317;27.658;85.326;2023-07-02T09:05:49;8.90;;;6.03;;
69203;SDS011;56317;27.658;85.326;2023-07-02T09:08:25;10.10;;;5.40;;
69203;SDS011;56317;27.658;85.326;2023-07-02T09:11:14;9.23;;;5.60;;
69203;SDS011;56317;27.658;85.326;2023-07-02T09:13:52;11.35;;;6.15;;
69203;SDS011;56317;27.658;85.326;2023-07-02T09:16:31;9.23;;;5.13;;
69203;SDS011;56317;27.658;85.326;2023-07-02T09:19:04;8.70;;;4.68;;
69203;SDS011;56317;27.658;85.326;2023-07-02T09:21:40;7.07;;;4.85;;
69203;SDS011;56317;27.658;85.326;2023-07-02T09:26:44;9.73;;;4.93;;
69203;SDS011;56317;27.658;85.326;2023-07-02T09:29:22;7.03;;;4.68;;
69203;SDS011;56317;27.658;85.326;2023-07-02T09:31:52;9.43;;;5.63;;
69203;SDS011;56317;27.658;85.326;2023-07-02T09:34:19;8.82;;;5.28;;
69203;SDS011;56317;27.658;85.326;2023-07-02T09:36:52;7.82;;;5.40;;
69203;SDS011;56317;27.658;85.326;2023-07-02T09:39:26;10.77;;;5.57;;
69203;SDS011;56317;27.658;85.326;2023-07-02T09:41:55;7.95;;;5.00;;
69203;SDS011;56317;27.658;85.326;2023-07-02T09:44:33;8.40;;;4.47;;
69203;SDS011;56317;27.658;85.326;2023-07-02T09:47:01;9.10;;;4.80;;
69203;SDS011;56317;27.658;85.326;2023-07-02T09:49:36;7.85;;;4.13;;
69203;SDS011;56317;27.658;85.326;2023-07-02T09:52:08;7.50;;;4.97;;
69203;SDS011;56317;27.658;85.326;2023-07-02T09:54:38;9.02;;;5.28;;
69203;SDS011;56317;27.658;85.326;2023-07-02T09:57:08;7.45;;;4.40;;
69203;SDS011;56317;27.658;85.326;2023-07-02T09:59:35;7.60;;;4.45;;
69203;SDS011;56317;27.658;85.326;2023-07-02T10:02:03;10.43;;;4.20;;
69203;SDS011;56317;27.658;85.326;2023-07-02T10:04:44;9.57;;;4.25;;
69203;SDS011;56317;27.658;85.326;2023-07-02T10:07:13;7.05;;;4.38;;
69203;SDS011;56317;27.658;85.326;2023-07-02T10:09:51;6.70;;;4.55;;
69203;SDS011;56317;27.658;85.326;2023-07-02T10:14:47;7.95;;;4.38;;
69203;SDS011;56317;27.658;85.326;2023-07-02T10:22:42;6.13;;;3.92;;
69203;SDS011;56317;27.658;85.326;2023-07-02T10:25:10;8.95;;;4.00;;
69203;SDS011;56317;27.658;85.326;2023-07-02T10:27:41;7.50;;;4.88;;
69203;SDS011;56317;27.658;85.326;2023-07-02T10:30:09;9.07;;;4.70;;
69203;SDS011;56317;27.658;85.326;2023-07-02T10:32:37;13.63;;;7.28;;
69203;SDS011;56317;27.658;85.326;2023-07-02T10:35:14;11.77;;;5.85;;
69203;SDS011;56317;27.658;85.326;2023-07-02T10:37:44;8.87;;;5.60;;
69203;SDS011;56317;27.658;85.326;2023-07-02T10:40:12;7.72;;;4.32;;
69203;SDS011;56317;27.658;85.326;2023-07-02T10:42:46;10.95;;;5.20;;
69203;SDS011;56317;27.658;85.326;2023-07-02T10:45:14;7.57;;;3.92;;
69203;SDS011;56317;27.658;85.326;2023-07-02T10:47:42;8.48;;;5.40;;
69203;SDS011;56317;27.658;85.326;2023-07-02T10:50:16;10.55;;;5.57;;
69203;SDS011;56317;27.658;85.326;2023-07-02T10:52:45;11.43;;;5.47;;
69203;SDS011;56317;27.658;85.326;2023-07-02T10:55:19;12.23;;;5.60;;
69203;SDS011;56317;27.658;85.326;2023-07-02T10:57:48;7.93;;;5.05;;
69203;SDS011;56317;27.658;85.326;2023-07-02T11:00:19;8.80;;;4.60;;
69203;SDS011;56317;27.658;85.326;2023-07-02T11:02:46;7.13;;;4.35;;
69203;SDS011;56317;27.658;85.326;2023-07-02T11:05:14;9.75;;;4.47;;
69203;SDS011;56317;27.658;85.326;2023-07-02T11:07:41;8.45;;;4.60;;
69203;SDS011;56317;27.658;85.326;2023-07-02T11:10:09;9.50;;;4.63;;
69203;SDS011;56317;27.658;85.326;2023-07-02T11:12:43;10.00;;;5.15;;
69203;SDS011;56317;27.658;85.326;2023-07-02T11:15:11;7.28;;;4.28;;
69203;SDS011;56317;27.658;85.326;2023-07-02T11:17:40;11.70;;;4.95;;
69203;SDS011;56317;27.658;85.326;2023-07-02T11:20:08;11.25;;;6.32;;
69203;SDS011;56317;27.658;85.326;2023-07-02T11:22:36;10.27;;;4.60;;
69203;SDS011;56317;27.658;85.326;2023-07-02T11:25:16;12.80;;;5.90;;
69203;SDS011;56317;27.658;85.326;2023-07-02T11:27:47;9.63;;;5.38;;
69203;SDS011;56317;27.658;85.326;2023-07-02T11:30:15;11.80;;;4.78;;
69203;SDS011;56317;27.658;85.326;2023-07-02T11:35:19;11.30;;;5.00;;
69203;SDS011;56317;27.658;85.326;2023-07-02T11:37:48;13.68;;;5.25;;
69203;SDS011;56317;27.658;85.326;2023-07-02T11:40:18;8.88;;;4.45;;
69203;SDS011;56317;27.658;85.326;2023-07-02T11:42:45;8.73;;;5.43;;
69203;SDS011;56317;27.658;85.326;2023-07-02T11:45:12;10.05;;;5.97;;
69203;SDS011;56317;27.658;85.326;2023-07-02T11:47:40;12.77;;;6.20;;
69203;SDS011;56317;27.658;85.326;2023-07-02T11:50:07;12.95;;;5.85;;
69203;SDS011;56317;27.658;85.326;2023-07-02T11:52:35;10.95;;;5.53;;
69203;SDS011;56317;27.658;85.326;2023-07-02T11:55:02;14.60;;;6.20;;
69203;SDS011;56317;27.658;85.326;2023-07-02T11:57:30;11.38;;;5.78;;
69203;SDS011;56317;27.658;85.326;2023-07-02T11:59:57;15.35;;;6.80;;
69203;SDS011;56317;27.658;85.326;2023-07-02T12:02:34;12.35;;;6.32;;
69203;SDS011;56317;27.658;85.326;2023-07-02T12:05:01;10.93;;;6.47;;
69203;SDS011;56317;27.658;85.326;2023-07-02T12:07:33;14.63;;;6.38;;
69203;SDS011;56317;27.658;85.326;2023-07-02T12:10:01;10.35;;;5.18;;
69203;SDS011;56317;27.658;85.326;2023-07-02T12:12:28;14.55;;;6.82;;
69203;SDS011;56317;27.658;85.326;2023-07-02T12:14:56;12.45;;;6.35;;
69203;SDS011;56317;27.658;85.326;2023-07-02T12:17:23;14.10;;;7.18;;
69203;SDS011;56317;27.658;85.326;2023-07-02T12:19:50;13.25;;;7.55;;
69203;SDS011;56317;27.658;85.326;2023-07-02T12:22:17;16.20;;;8.20;;
69203;SDS011;56317;27.658;85.326;2023-07-02T12:24:47;15.10;;;7.20;;
69203;SDS011;56317;27.658;85.326;2023-07-02T12:27:23;22.35;;;7.45;;
69203;SDS011;56317;27.658;85.326;2023-07-02T12:29:52;16.58;;;8.48;;
69203;SDS011;56317;27.658;85.326;2023-07-02T12:32:20;12.02;;;6.88;;
69203;SDS011;56317;27.658;85.326;2023-07-02T12:34:47;12.52;;;6.72;;
69203;SDS011;56317;27.658;85.326;2023-07-02T12:37:14;16.35;;;7.00;;
69203;SDS011;56317;27.658;85.326;2023-07-02T12:39:43;13.52;;;6.90;;
69203;SDS011;56317;27.658;85.326;2023-07-02T12:42:10;14.88;;;7.07;;
69203;SDS011;56317;27.658;85.326;2023-07-02T12:44:37;14.50;;;7.05;;
69203;SDS011;56317;27.658;85.326;2023-07-02T12:47:04;12.57;;;6.53;;
69203;SDS011;56317;27.658;85.326;2023-07-02T12:49:32;13.10;;;6.88;;
69203;SDS011;56317;27.658;85.326;2023-07-02T12:51:59;13.57;;;6.70;;
69203;SDS011;56317;27.658;85.326;2023-07-02T12:54:26;13.45;;;5.93;;
69203;SDS011;56317;27.658;85.326;2023-07-02T12:56:53;13.23;;;6.45;;
69203;SDS011;56317;27.658;85.326;2023-07-02T12:59:21;14.07;;;6.63;;
69203;SDS011;56317;27.658;85.326;2023-07-02T13:01:49;11.18;;;6.30;;
69203;SDS011;56317;27.658;85.326;2023-07-02T13:04:16;13.57;;;6.75;;
69203;SDS011;56317;27.658;85.326;2023-07-02T13:06:44;13.55;;;7.25;;
69203;SDS011;56317;27.658;85.326;2023-07-02T13:09:12;13.18;;;6.78;;
69203;SDS011;56317;27.658;85.326;2023-07-02T13:11:39;13.07;;;6.55;;
69203;SDS011;56317;27.658;85.326;2023-07-02T13:14:06;16.92;;;7.78;;
69203;SDS011;56317;27.658;85.326;2023-07-02T13:16:33;17.08;;;8.18;;
69203;SDS011;56317;27.658;85.326;2023-07-02T13:19:01;17.02;;;8.52;;
69203;SDS011;56317;27.658;85.326;2023-07-02T13:21:28;13.65;;;7.95;;
69203;SDS011;56317;27.658;85.326;2023-07-02T13:23:55;18.48;;;7.15;;
69203;SDS011;56317;27.658;85.326;2023-07-02T13:26:22;12.40;;;6.55;;
69203;SDS011;56317;27.658;85.326;2023-07-02T13:28:49;11.20;;;6.93;;
69203;SDS011;56317;27.658;85.326;2023-07-02T13:31:17;14.82;;;7.05;;
69203;SDS011;56317;27.658;85.326;2023-07-02T13:33:44;16.00;;;7.03;;
69203;SDS011;56317;27.658;85.326;2023-07-02T13:36:14;16.27;;;7.40;;
69203;SDS011;56317;27.658;85.326;2023-07-02T13:38:42;12.00;;;6.78;;
69203;SDS011;56317;27.658;85.326;2023-07-02T13:41:09;15.35;;;8.15;;
69203;SDS011;56317;27.658;85.326;2023-07-02T13:43:36;16.08;;;8.05;;
69203;SDS011;56317;27.658;85.326;2023-07-02T13:46:04;12.68;;;7.07;;
69203;SDS011;56317;27.658;85.326;2023-07-02T13:48:31;15.60;;;6.78;;
69203;SDS011;56317;27.658;85.326;2023-07-02T13:51:00;13.27;;;7.03;;
69203;SDS011;56317;27.658;85.326;2023-07-02T13:53:27;12.05;;;6.43;;
69203;SDS011;56317;27.658;85.326;2023-07-02T13:55:54;13.15;;;7.18;;
69203;SDS011;56317;27.658;85.326;2023-07-02T13:58:22;13.65;;;7.93;;
69203;SDS011;56317;27.658;85.326;2023-07-02T14:00:49;12.52;;;6.70;;
69203;SDS011;56317;27.658;85.326;2023-07-02T14:03:16;12.65;;;6.60;;
69203;SDS011;56317;27.658;85.326;2023-07-02T14:05:43;13.20;;;7.05;;
69203;SDS011;56317;27.658;85.326;2023-07-02T14:08:10;12.35;;;7.20;;
69203;SDS011;56317;27.658;85.326;2023-07-02T14:10:37;12.48;;;7.10;;
69203;SDS011;56317;27.658;85.326;2023-07-02T14:13:05;15.73;;;7.38;;
69203;SDS011;56317;27.658;85.326;2023-07-02T14:15:32;13.88;;;7.50;;
69203;SDS011;56317;27.658;85.326;2023-07-02T14:17:59;16.77;;;7.75;;
69203;SDS011;56317;27.658;85.326;2023-07-02T14:20:26;13.23;;;7.28;;
69203;SDS011;56317;27.658;85.326;2023-07-02T14:22:53;10.95;;;6.53;;
69203;SDS011;56317;27.658;85.326;2023-07-02T14:25:20;13.40;;;7.13;;
69203;SDS011;56317;27.658;85.326;2023-07-02T14:27:47;10.73;;;6.43;;
69203;SDS011;56317;27.658;85.326;2023-07-02T14:30:14;10.30;;;6.03;;
69203;SDS011;56317;27.658;85.326;2023-07-02T14:32:41;11.95;;;5.47;;
69203;SDS011;56317;27.658;85.326;2023-07-02T14:35:09;14.90;;;8.18;;
69203;SDS011;56317;27.658;85.326;2023-07-02T14:37:36;11.40;;;6.20;;
69203;SDS011;56317;27.658;85.326;2023-07-02T14:40:03;17.10;;;6.47;;